Time;durP1;ratioP1;P1;durP2;ratioP2;P2;SDS_P1;SDS_P2;PMS_P1;PMS_P2;Temp;Humidity;BMP_temperature;BMP_pressure;BME280_temperature;BME280_humidity;BME280_pressure;Samples;Min_cycle;Max_cycle;Signal;HPM_P1;HPM_P2
2023/08/03 00:01:02;;;;;;;4.35;3.17;;;;;;;21.15;66.32;97597.81;5128398;28;20318;-70
2023/08/03 00:03:29;;;;;;;3.78;3.05;;;;;;;21.18;66.45;97588.53;5127257;28;20043;-70
2023/08/03 00:05:56;;;;;;;4.20;2.58;;;;;;;21.20;66.69;97592.69;5128312;28;20050;-70
2023/08/03 00:08:22;;;;;;;3.47;2.67;;;;;;;21.25;66.12;97598.31;5128263;28;20059;-70
2023/08/03 00:10:49;;;;;;;3.33;2.58;;;;;;;21.25;66.79;97601.03;5127080;28;20043;-70
2023/08/03 00:13:18;;;;;;;4.18;3.00;;;;;;;21.22;66.59;97600.56;5127729;28;20044;-70
2023/08/03 00:15:44;;;;;;;3.40;2.67;;;;;;;21.16;66.89;97604.88;5128094;28;20054;-70
2023/08/03 00:18:11;;;;;;;3.85;2.78;;;;;;;21.17;67.22;97598.47;5128264;28;20050;-70
2023/08/03 00:20:38;;;;;;;4.55;2.92;;;;;;;21.16;67.07;97598.66;5127981;28;20051;-70
2023/08/03 00:23:05;;;;;;;3.83;2.90;;;;;;;21.13;67.37;97606.09;5127626;28;20300;-71
2023/08/03 00:25:32;;;;;;;5.20;3.45;;;;;;;21.19;66.53;97609.03;5126462;28;20046;-70
2023/08/03 00:27:58;;;;;;;3.97;2.72;;;;;;;21.19;66.94;97626.03;5126700;28;20066;-70
2023/08/03 00:30:27;;;;;;;5.53;3.45;;;;;;;21.18;67.04;97629.75;5127963;28;20039;-70
2023/08/03 00:32:54;;;;;;;5.10;3.42;;;;;;;21.13;67.35;97621.44;5127572;28;20051;-69
2023/08/03 00:35:21;;;;;;;6.25;3.85;;;;;;;21.16;66.97;97625.59;5126506;28;20085;-70
2023/08/03 00:37:49;;;;;;;6.80;3.45;;;;;;;20.97;67.28;97614.41;5127496;28;20084;-70
2023/08/03 00:40:16;;;;;;;4.40;3.30;;;;;;;21.01;67.58;97634.53;5126367;28;20127;-70
2023/08/03 00:42:43;;;;;;;6.38;3.47;;;;;;;20.98;67.53;97634.94;5127243;28;20097;-70
2023/08/03 00:45:12;;;;;;;5.22;3.28;;;;;;;21.06;67.31;97642.06;5127435;28;20291;-69
2023/08/03 00:47:40;;;;;;;4.90;3.40;;;;;;;21.08;66.97;97643.56;5109472;28;20045;-70
2023/08/03 00:50:08;;;;;;;4.15;3.15;;;;;;;21.07;66.81;97651.81;5127113;28;20044;-70
2023/08/03 00:52:35;;;;;;;5.38;3.30;;;;;;;21.06;66.97;97663.63;5126507;28;20047;-70
2023/08/03 00:55:02;;;;;;;5.05;3.00;;;;;;;20.95;67.21;97675.69;5126839;28;20357;-70
2023/08/03 00:57:29;;;;;;;4.60;2.97;;;;;;;21.01;67.10;97672.25;5126038;28;20043;-70
2023/08/03 00:59:56;;;;;;;6.95;2.90;;;;;;;21.04;67.10;97671.06;5126668;28;20043;-70
2023/08/03 01:02:23;;;;;;;6.65;3.53;;;;;;;20.99;67.32;97677.00;5126930;28;20039;-70
2023/08/03 01:04:51;;;;;;;4.63;3.20;;;;;;;21.00;67.23;97673.28;5127219;28;20104;-70
2023/08/03 01:07:21;;;;;;;4.22;3.20;;;;;;;20.99;67.15;97671.59;5127068;28;20039;-70
2023/08/03 01:09:47;;;;;;;4.22;3.15;;;;;;;20.99;67.38;97678.84;5127262;28;20100;-70
2023/08/03 01:12:16;;;;;;;4.07;2.78;;;;;;;20.80;67.79;97654.22;5127188;28;20047;-70
2023/08/03 01:14:43;;;;;;;5.13;2.97;;;;;;;20.94;68.10;97681.28;5126664;28;20067;-70
2023/08/03 01:17:10;;;;;;;3.97;2.60;;;;;;;20.39;68.26;97610.03;5108892;28;20134;-70
2023/08/03 01:19:37;;;;;;;3.65;2.78;;;;;;;20.87;68.24;97696.53;5125626;28;20040;-70
2023/08/03 01:22:07;;;;;;;4.30;3.08;;;;;;;20.92;67.97;97691.41;5126801;28;20043;-70
2023/08/03 01:24:35;;;;;;;4.45;3.88;;;;;;;20.94;67.71;97692.06;5126740;28;20107;-71
2023/08/03 01:27:02;;;;;;;3.28;2.60;;;;;;;20.90;67.89;97702.38;5125560;28;20333;-71
2023/08/03 01:29:29;;;;;;;4.20;3.08;;;;;;;20.81;68.50;97709.72;5126756;28;20046;-70
2023/08/03 01:31:58;;;;;;;4.07;2.70;;;;;;;20.80;68.26;97724.22;5126672;28;20043;-71
2023/08/03 01:34:25;;;;;;;4.90;2.75;;;;;;;20.89;67.97;97729.47;5126912;28;20194;-71
2023/08/03 01:36:52;;;;;;;4.55;2.90;;;;;;;20.72;68.41;97712.72;5126536;28;20050;-71
2023/08/03 01:39:20;;;;;;;6.53;3.50;;;;;;;20.84;68.87;97740.81;5125286;28;20058;-71
2023/08/03 01:41:48;;;;;;;4.05;3.30;;;;;;;20.84;68.63;97735.44;5126853;28;20051;-71
2023/08/03 01:44:25;;;;;;;5.95;2.83;;;;;;;20.83;68.69;97729.22;5125319;28;20238;-70
2023/08/03 01:46:53;;;;;;;3.50;2.30;;;;;;;20.70;68.46;97729.06;5125537;28;20043;-71
2023/08/03 01:49:20;;;;;;;3.40;2.72;;;;;;;20.77;68.12;97735.34;5126424;28;20035;-71
2023/08/03 01:51:47;;;;;;;4.03;3.25;;;;;;;20.82;67.62;97718.63;5126018;28;20061;-70
2023/08/03 01:54:14;;;;;;;5.25;3.10;;;;;;;20.64;67.68;97693.97;5124989;28;20040;-71
2023/08/03 01:56:41;;;;;;;3.80;2.72;;;;;;;20.79;67.67;97730.63;5126602;28;20051;-71
2023/08/03 01:59:10;;;;;;;5.13;3.00;;;;;;;20.03;68.26;97628.78;5126198;28;20104;-70
2023/08/03 02:01:36;;;;;;;4.47;2.70;;;;;;;20.56;68.66;97729.06;5124913;28;20028;-70
2023/08/03 02:04:03;;;;;;;3.05;2.30;;;;;;;20.66;68.72;97748.47;5125104;28;20044;-71
2023/08/03 02:06:30;;;;;;;3.78;2.83;;;;;;;20.62;68.38;97742.63;5126051;28;20157;-71
2023/08/03 02:08:57;;;;;;;3.33;2.17;;;;;;;20.52;69.06;97742.06;5125630;28;20042;-71
2023/08/03 02:11:23;;;;;;;4.78;2.38;;;;;;;20.56;68.77;97753.28;5125468;28;20043;-70
2023/08/03 02:13:50;;;;;;;3.13;2.40;;;;;;;20.52;68.63;97758.22;5125942;28;20089;-71
2023/08/03 02:16:18;;;;;;;3.83;2.38;;;;;;;20.47;68.99;97769.53;5126401;28;20043;-71
2023/08/03 02:18:45;;;;;;;4.43;2.60;;;;;;;20.53;68.87;97773.34;5126350;28;20055;-71
2023/08/03 02:21:11;;;;;;;3.53;2.72;;;;;;;20.46;69.26;97785.88;5126382;28;20067;-71
2023/08/03 02:23:38;;;;;;;3.10;2.38;;;;;;;20.50;68.91;97788.00;5126316;28;20295;-71
2023/08/03 02:26:05;;;;;;;4.53;3.05;;;;;;;20.46;68.92;97799.31;5124911;28;20078;-71
2023/08/03 02:28:33;;;;;;;4.80;2.60;;;;;;;20.49;69.59;97815.09;5125791;28;20050;-71
2023/08/03 02:31:00;;;;;;;4.78;2.85;;;;;;;20.45;69.43;97825.38;5125813;28;20062;-71
2023/08/03 02:33:28;;;;;;;4.85;2.80;;;;;;;20.57;68.67;97835.69;5124871;28;20299;-71
2023/08/03 02:35:54;;;;;;;3.22;2.40;;;;;;;20.50;69.29;97839.13;5126293;28;20043;-71
2023/08/03 02:38:21;;;;;;;4.88;2.60;;;;;;;20.57;68.68;97847.31;5124726;28;20069;-71
2023/08/03 02:40:48;;;;;;;5.18;2.70;;;;;;;20.57;68.91;97874.22;5125497;28;20047;-71
2023/08/03 02:43:14;;;;;;;3.95;2.13;;;;;;;20.54;68.51;97895.28;5126146;28;20044;-71
2023/08/03 02:45:41;;;;;;;3.17;2.50;;;;;;;20.40;68.84;97889.69;5124699;28;20185;-71
2023/08/03 02:48:08;;;;;;;3.90;2.17;;;;;;;20.50;68.74;97919.88;5126107;28;20055;-71
2023/08/03 02:50:36;;;;;;;5.85;2.70;;;;;;;20.33;70.03;97914.81;5125806;28;20044;-71
2023/08/03 02:53:03;;;;;;;3.38;2.35;;;;;;;20.31;70.12;97916.84;5125622;28;20096;-71
2023/08/03 02:55:29;;;;;;;4.82;2.22;;;;;;;20.33;70.13;97920.19;5125447;28;20071;-71
2023/08/03 02:57:56;;;;;;;5.93;2.60;;;;;;;20.40;70.04;97921.13;5125712;28;20047;-70
2023/08/03 03:00:23;;;;;;;3.85;2.65;;;;;;;20.36;70.13;97931.41;5125710;28;20054;-71
2023/08/03 03:02:49;;;;;;;3.53;2.35;;;;;;;20.29;70.40;97941.22;5126730;28;20035;-71
2023/08/03 03:05:16;;;;;;;4.35;2.53;;;;;;;20.11;70.34;97913.78;5129699;28;20196;-71
2023/08/03 03:07:44;;;;;;;3.67;2.47;;;;;;;20.22;70.54;97923.28;5129426;28;20036;-71
2023/08/03 03:10:13;;;;;;;3.03;2.17;;;;;;;20.22;70.05;97932.22;5128163;28;20035;-71
2023/08/03 03:12:40;;;;;;;4.63;2.58;;;;;;;20.22;69.91;97934.91;5129595;28;20043;-71
2023/08/03 03:15:07;;;;;;;3.40;2.13;;;;;;;20.27;69.59;97951.34;5128948;28;20088;-71
2023/08/03 03:17:34;;;;;;;5.10;2.33;;;;;;;20.26;69.41;97952.34;5128308;28;20050;-71
2023/08/03 03:20:01;;;;;;;4.07;2.60;;;;;;;19.97;69.69;97928.81;5127693;28;20039;-71
2023/08/03 03:22:27;;;;;;;4.80;2.20;;;;;;;20.30;69.31;97963.59;5127769;28;20104;-71
2023/08/03 03:24:56;;;;;;;5.18;2.55;;;;;;;20.33;69.07;97979.38;5128822;28;20065;-71
2023/08/03 03:27:22;;;;;;;3.92;2.35;;;;;;;20.42;67.98;97984.50;5128673;28;20096;-71
2023/08/03 03:29:49;;;;;;;3.42;2.25;;;;;;;20.31;67.70;97957.19;5127196;28;20047;-70
2023/08/03 03:32:16;;;;;;;3.65;2.42;;;;;;;20.43;67.17;97991.56;5129370;28;20039;-70
2023/08/03 03:34:43;;;;;;;4.28;2.50;;;;;;;20.39;67.38;97992.09;5128978;28;20051;-71
2023/08/03 03:37:11;;;;;;;3.55;2.15;;;;;;;20.39;67.73;97992.09;5128539;28;20035;-71
2023/08/03 03:39:37;;;;;;;3.92;2.22;;;;;;;20.42;66.95;97989.06;5127835;28;20299;-72
2023/08/03 03:42:06;;;;;;;4.80;2.60;;;;;;;20.44;66.57;97997.78;5127602;28;20047;-72
2023/08/03 03:44:34;;;;;;;4.00;2.30;;;;;;;20.39;66.45;98002.88;5128983;28;20051;-71
2023/08/03 03:47:01;;;;;;;3.38;2.20;;;;;;;20.39;66.37;98001.03;5127449;28;20118;-71
2023/08/03 03:49:30;;;;;;;4.15;2.80;;;;;;;20.29;66.62;98013.03;5128947;28;20361;-71
2023/08/03 03:51:57;;;;;;;3.30;2.33;;;;;;;20.34;66.55;98011.47;5128835;28;20168;-71
2023/08/03 03:54:23;;;;;;;4.50;2.65;;;;;;;20.01;66.78;97956.19;5127847;28;20059;-71
2023/08/03 03:56:50;;;;;;;3.58;3.00;;;;;;;20.26;67.18;98010.69;5128424;28;20047;-70
2023/08/03 03:59:18;;;;;;;3.92;2.72;;;;;;;20.26;67.35;98013.38;5128015;28;20108;-70
2023/08/03 04:01:45;;;;;;;3.88;2.60;;;;;;;20.28;67.28;98012.19;5127998;28;20048;-70
2023/08/03 04:04:12;;;;;;;3.80;2.80;;;;;;;20.24;67.27;98004.66;5128255;28;20058;-70
2023/08/03 04:06:39;;;;;;;4.10;2.85;;;;;;;20.16;67.32;98016.28;5127220;28;20295;-70
2023/08/03 04:09:05;;;;;;;4.10;2.80;;;;;;;20.18;67.18;98028.53;5128499;28;20081;-70
2023/08/03 04:11:32;;;;;;;4.55;2.88;;;;;;;20.25;67.48;98034.06;5128174;28;20055;-71
2023/08/03 04:13:59;;;;;;;4.07;2.97;;;;;;;20.29;67.24;98021.09;5128138;28;20044;-70
2023/08/03 04:16:27;;;;;;;3.78;2.70;;;;;;;20.33;67.36;98025.94;5127830;28;20165;-71
2023/08/03 04:18:54;;;;;;;5.40;2.53;;;;;;;20.36;67.65;98030.13;5127429;28;20088;-71
2023/08/03 04:21:20;;;;;;;4.20;2.90;;;;;;;20.36;66.94;98035.50;5127705;28;20043;-71
2023/08/03 04:23:47;;;;;;;3.90;2.88;;;;;;;20.39;67.53;98035.16;5127581;28;20041;-71
2023/08/03 04:26:14;;;;;;;7.18;3.03;;;;;;;20.43;66.59;98037.31;5127822;28;20051;-71
2023/08/03 04:28:42;;;;;;;6.53;3.35;;;;;;;20.33;66.73;98039.41;5128010;28;20050;-71
2023/08/03 04:31:09;;;;;;;3.85;2.70;;;;;;;20.34;66.66;98051.84;5126535;28;20050;-71
2023/08/03 04:33:37;;;;;;;3.70;2.70;;;;;;;20.34;65.15;98051.00;5127807;28;20057;-71
2023/08/03 04:36:05;;;;;;;4.57;2.92;;;;;;;20.40;64.28;98053.81;5127766;28;20035;-71
2023/08/03 04:38:31;;;;;;;8.20;2.40;;;;;;;20.41;63.40;98060.88;5127199;28;20092;-71
2023/08/03 04:41:00;;;;;;;3.38;2.33;;;;;;;20.42;63.09;98064.41;5126433;28;20093;-71
2023/08/03 04:43:27;;;;;;;3.70;2.30;;;;;;;20.30;61.30;98063.13;5127155;28;20043;-71
2023/08/03 04:45:53;;;;;;;3.45;2.22;;;;;;;20.14;60.63;98031.75;5127464;28;20085;-71
2023/08/03 04:48:20;;;;;;;3.47;2.17;;;;;;;20.35;60.42;98069.66;5127034;28;20257;-71
2023/08/03 04:50:48;;;;;;;3.08;2.00;;;;;;;20.13;59.30;98044.38;5127592;28;20134;-71
2023/08/03 04:53:15;;;;;;;3.15;2.00;;;;;;;20.30;59.62;98082.81;5126188;28;20039;-71
2023/08/03 04:55:43;;;;;;;2.80;2.05;;;;;;;20.34;59.29;98086.81;5126828;28;20051;-71
2023/08/03 04:58:10;;;;;;;3.40;1.90;;;;;;;20.29;58.11;98094.56;5126133;28;20062;-71
2023/08/03 05:00:36;;;;;;;8.80;2.50;;;;;;;20.27;57.01;98098.47;5127247;28;20039;-71
2023/08/03 05:03:03;;;;;;;3.58;2.33;;;;;;;19.66;57.03;98006.75;5126424;28;20043;-71
2023/08/03 05:05:30;;;;;;;3.75;1.90;;;;;;;20.20;56.87;98090.22;5125974;28;20039;-71
2023/08/03 05:07:58;;;;;;;2.83;1.50;;;;;;;20.24;56.79;98096.13;5126678;28;20039;-71
2023/08/03 05:10:25;;;;;;;4.50;1.60;;;;;;;20.19;56.36;98102.00;5126137;28;20040;-71
2023/08/03 05:12:51;;;;;;;3.67;2.10;;;;;;;20.22;56.55;98100.81;5126391;28;20039;-71
2023/08/03 05:15:18;;;;;;;3.35;1.80;;;;;;;20.14;55.88;98094.44;5125471;28;20049;-71
2023/08/03 05:17:46;;;;;;;3.63;1.92;;;;;;;20.15;56.07;98109.56;5126756;28;20047;-70
2023/08/03 05:20:13;;;;;;;3.63;2.08;;;;;;;20.16;56.24;98115.78;5126633;28;20184;-71
2023/08/03 05:22:40;;;;;;;2.97;2.03;;;;;;;19.88;56.50;98060.78;5125572;28;20031;-70
2023/08/03 05:25:10;;;;;;;3.40;2.40;;;;;;;20.17;56.18;98115.63;5125132;28;20043;-70
2023/08/03 05:27:36;;;;;;;3.25;2.05;;;;;;;20.21;56.53;98120.66;5126690;28;20043;-70
2023/08/03 05:30:03;;;;;;;2.75;1.80;;;;;;;20.18;56.14;98116.47;5125835;28;20092;-70
2023/08/03 05:32:30;;;;;;;2.97;1.80;;;;;;;20.18;56.34;98111.09;5126886;28;20143;-70
2023/08/03 05:34:57;;;;;;;3.22;2.20;;;;;;;20.21;56.42;98116.09;5126615;28;20050;-70
2023/08/03 05:37:26;;;;;;;3.13;2.03;;;;;;;20.26;56.56;98112.94;5125629;28;20040;-71
2023/08/03 05:39:52;;;;;;;3.25;1.92;;;;;;;20.22;56.78;98122.31;5126382;28;20047;-71
2023/08/03 05:42:21;;;;;;;4.28;1.85;;;;;;;20.21;57.09;98097.28;5126247;28;20047;-71
2023/08/03 05:44:48;;;;;;;4.97;1.65;;;;;;;20.24;56.99;98113.09;5125285;28;20040;-70
2023/08/03 05:47:17;;;;;;;4.05;2.35;;;;;;;20.30;57.25;98114.25;5126102;28;20061;-70
2023/08/03 05:49:44;;;;;;;3.78;2.00;;;;;;;20.28;56.91;98110.91;5125869;28;20046;-70
2023/08/03 05:52:11;;;;;;;3.88;2.03;;;;;;;20.32;56.71;98112.22;5125170;28;20036;-71
2023/08/03 05:54:39;;;;;;;5.90;2.35;;;;;;;20.37;56.84;98110.69;5125933;28;20097;-70
2023/08/03 05:57:11;;;;;;;3.05;2.15;;;;;;;20.37;56.60;98117.91;5126189;28;20048;-70
2023/08/03 05:59:40;;;;;;;3.85;1.75;;;;;;;20.40;56.73;98118.41;5126254;28;20062;-71
2023/08/03 06:02:28;;;;;;;3.97;1.90;;;;;;;19.90;56.42;98019.28;5126837;28;20230;-70
2023/08/03 06:04:55;;;;;;;3.60;1.83;;;;;;;19.86;56.45;98002.66;5126322;28;20199;-71
2023/08/03 06:07:22;;;;;;;4.95;1.92;;;;;;;20.49;56.14;98106.56;5126043;28;20349;-70
2023/08/03 06:09:50;;;;;;;3.97;2.55;;;;;;;20.52;56.20;98109.91;5126223;28;20273;-71
2023/08/03 06:12:19;;;;;;;3.55;1.85;;;;;;;20.32;55.99;98083.47;5125802;28;20058;-71
2023/08/03 06:14:47;;;;;;;4.00;2.05;;;;;;;20.54;55.51;98114.09;5126184;28;20096;-71
2023/08/03 06:17:14;;;;;;;3.88;1.95;;;;;;;20.52;55.63;98120.69;5126127;28;20043;-71
2023/08/03 06:19:41;;;;;;;3.90;2.05;;;;;;;20.54;55.63;98118.66;5125964;28;20039;-71
2023/08/03 06:22:19;;;;;;;3.83;1.80;;;;;;;20.56;55.55;98119.31;5126028;28;20058;-71
2023/08/03 06:24:46;;;;;;;4.88;2.35;;;;;;;20.57;55.86;98131.75;5125894;28;20051;-71
2023/08/03 06:27:14;;;;;;;3.05;1.80;;;;;;;20.40;55.51;98096.03;5126043;28;20043;-71
2023/08/03 06:29:41;;;;;;;3.90;2.17;;;;;;;20.59;55.65;98129.72;5126300;28;20039;-71
2023/08/03 06:32:24;;;;;;;3.13;1.90;;;;;;;20.59;55.94;98132.41;5125745;28;20072;-70
2023/08/03 06:34:52;;;;;;;2.83;1.60;;;;;;;20.43;56.13;98106.44;5126106;28;20054;-71
2023/08/03 06:37:18;;;;;;;3.55;2.08;;;;;;;20.39;55.43;98089.81;5126905;28;20127;-71
2023/08/03 06:39:49;;;;;;;3.47;1.98;;;;;;;20.43;55.03;98095.69;5128533;28;20341;-71
2023/08/03 06:42:16;;;;;;;5.68;2.22;;;;;;;20.59;55.08;98119.78;5129334;28;20048;-71
2023/08/03 06:44:45;;;;;;;3.97;2.17;;;;;;;20.58;54.57;98123.50;5129724;28;20199;-71
2023/08/03 06:47:14;;;;;;;5.28;1.98;;;;;;;20.28;54.89;98075.91;5129826;28;20065;-71
2023/08/03 06:49:40;;;;;;;3.38;2.00;;;;;;;18.43;54.69;97773.72;5129667;28;20104;-70
2023/08/03 06:52:08;;;;;;;5.07;2.53;;;;;;;20.57;54.15;98139.84;5128457;28;20047;-71
2023/08/03 06:54:35;;;;;;;4.90;2.28;;;;;;;20.41;54.37;98111.16;5129241;28;20048;-71
2023/08/03 06:57:02;;;;;;;3.08;1.58;;;;;;;20.58;54.79;98147.72;5129551;28;20233;-71
2023/08/03 06:59:29;;;;;;;3.15;1.85;;;;;;;20.62;54.72;98153.59;5129643;28;20341;-71
2023/08/03 07:01:55;;;;;;;3.20;1.70;;;;;;;20.42;55.38;98128.97;5128155;28;20081;-71
2023/08/03 07:04:23;;;;;;;5.57;2.30;;;;;;;20.60;54.39;98156.47;5129615;28;20089;-71
2023/08/03 07:06:50;;;;;;;3.83;1.95;;;;;;;20.58;54.79;98155.81;5129055;28;20048;-71
2023/08/03 07:09:17;;;;;;;3.05;1.98;;;;;;;20.61;54.96;98166.22;5129015;28;20058;-71
2023/08/03 07:11:43;;;;;;;5.07;2.00;;;;;;;20.37;54.49;98132.19;5111209;28;20080;-71
2023/08/03 07:14:10;;;;;;;3.90;2.22;;;;;;;20.58;54.66;98166.56;5129147;28;20051;-71
2023/08/03 07:16:38;;;;;;;4.20;2.63;;;;;;;20.59;54.98;98170.94;5111851;28;20039;-71
2023/08/03 07:19:06;;;;;;;3.40;1.75;;;;;;;20.57;55.00;98169.44;5129108;28;20126;-71
2023/08/03 07:21:34;;;;;;;3.75;1.95;;;;;;;20.57;54.60;98167.59;5128955;28;20043;-72
2023/08/03 07:24:01;;;;;;;3.17;1.98;;;;;;;20.60;55.40;98175.31;5128476;28;20043;-72
2023/08/03 07:26:28;;;;;;;5.13;2.40;;;;;;;20.58;55.23;98171.97;5129212;28;20039;-71
2023/08/03 07:28:55;;;;;;;3.42;2.30;;;;;;;20.59;54.99;98172.78;5129113;28;20230;-71
2023/08/03 07:31:22;;;;;;;3.80;1.92;;;;;;;20.60;54.87;98180.69;5127501;28;20081;-71
2023/08/03 07:33:48;;;;;;;4.05;1.88;;;;;;;20.59;55.38;98173.63;5128560;28;20056;-71
2023/08/03 07:36:18;;;;;;;3.40;2.20;;;;;;;20.54;55.72;98177.88;5129000;28;20047;-71
2023/08/03 07:38:47;;;;;;;3.72;2.30;;;;;;;20.37;55.87;98150.19;5128735;28;20092;-71
2023/08/03 07:41:13;;;;;;;3.88;2.40;;;;;;;20.58;55.37;98189.97;5127797;28;20031;-72
2023/08/03 07:43:40;;;;;;;4.60;2.50;;;;;;;20.58;55.22;98190.78;5128314;28;20343;-72
2023/08/03 07:46:07;;;;;;;4.30;2.47;;;;;;;20.58;54.75;98187.25;5128603;28;20043;-72
2023/08/03 07:48:33;;;;;;;3.28;2.20;;;;;;;19.79;54.67;98074.25;5127827;28;20066;-71
2023/08/03 07:51:00;;;;;;;3.78;2.17;;;;;;;20.54;54.12;98194.84;5128525;28;20295;-72
2023/08/03 07:53:27;;;;;;;3.90;1.88;;;;;;;20.50;54.22;98201.59;5128442;28;20047;-71
2023/08/03 07:55:55;;;;;;;3.90;2.10;;;;;;;20.50;54.35;98196.22;5127898;28;20257;-71
2023/08/03 07:58:22;;;;;;;3.35;1.85;;;;;;;20.51;54.04;98197.91;5127468;28;20283;-71
2023/08/03 08:00:48;;;;;;;3.35;1.75;;;;;;;20.52;53.97;98202.25;5128146;28;20040;-71
2023/08/03 08:03:15;;;;;;;4.60;2.22;;;;;;;20.52;53.68;98202.25;5127076;28;20062;-71
2023/08/03 08:05:42;;;;;;;4.10;2.17;;;;;;;20.54;53.58;98211.00;5128336;28;20062;-71
2023/08/03 08:08:08;;;;;;;6.05;2.55;;;;;;;20.56;53.92;98205.44;5128021;28;20039;-71
2023/08/03 08:10:35;;;;;;;4.75;2.30;;;;;;;20.56;53.47;98217.03;5127681;28;20081;-72
2023/08/03 08:13:03;;;;;;;5.55;2.22;;;;;;;20.56;53.60;98217.03;5127938;28;20058;-71
2023/08/03 08:15:30;;;;;;;5.90;2.10;;;;;;;20.56;53.36;98216.22;5128040;28;20040;-71
2023/08/03 08:17:57;;;;;;;3.50;2.10;;;;;;;20.55;53.16;98226.13;5127858;28;20043;-72
2023/08/03 08:20:23;;;;;;;3.28;2.00;;;;;;;20.55;53.08;98230.69;5127441;28;20192;-72
2023/08/03 08:22:50;;;;;;;5.65;1.90;;;;;;;20.56;52.75;98232.34;5127647;28;20043;-72
2023/08/03 08:25:17;;;;;;;3.40;2.17;;;;;;;20.55;52.59;98228.81;5128113;28;20103;-71
2023/08/03 08:27:44;;;;;;;3.63;2.08;;;;;;;20.54;52.74;98229.00;5127954;28;20043;-71
2023/08/03 08:30:12;;;;;;;4.78;2.58;;;;;;;20.53;52.71;98220.09;5127578;28;20237;-71
2023/08/03 08:32:39;;;;;;;4.32;1.98;;;;;;;20.53;52.20;98225.47;5127387;28;20096;-71
2023/08/03 08:35:06;;;;;;;4.10;2.22;;;;;;;20.32;51.92;98203.69;5126544;28;20044;-71
2023/08/03 08:37:33;;;;;;;3.95;2.05;;;;;;;19.46;51.92;98052.00;5127513;28;20044;-71
2023/08/03 08:40:00;;;;;;;3.35;2.03;;;;;;;20.54;51.79;98227.16;5126386;28;20054;-72
2023/08/03 08:42:27;;;;;;;5.32;2.13;;;;;;;20.54;52.00;98232.53;5127744;28;20062;-71
2023/08/03 08:44:54;;;;;;;3.30;2.03;;;;;;;20.55;52.52;98234.22;5126556;28;20039;-71
2023/08/03 08:47:22;;;;;;;3.40;2.17;;;;;;;20.55;51.88;98239.59;5126555;28;20096;-71
2023/08/03 08:49:49;;;;;;;5.07;1.85;;;;;;;20.53;52.23;98246.16;5126460;28;20353;-71
2023/08/03 08:52:18;;;;;;;4.35;2.00;;;;;;;20.49;52.04;98249.19;5126369;28;20092;-71
2023/08/03 08:54:45;;;;;;;3.60;1.92;;;;;;;20.50;51.53;98250.03;5127075;28;20051;-72
2023/08/03 08:57:11;;;;;;;2.92;1.85;;;;;;;20.48;51.81;98244.00;5125421;28;20051;-71
2023/08/03 08:59:58;;;;;;;4.45;2.05;;;;;;;20.49;51.60;98264.50;5125196;28;20048;-71
2023/08/03 09:02:27;;;;;;;3.83;1.70;;;;;;;20.48;51.68;98268.22;5125965;28;20058;-71
2023/08/03 09:04:53;;;;;;;3.75;1.77;;;;;;;20.49;52.01;98273.44;5125932;28;20059;-71
2023/08/03 09:07:20;;;;;;;5.82;3.50;;;;;;;20.47;52.18;98278.16;5126947;28;20184;-71
2023/08/03 09:09:47;;;;;;;5.38;3.25;;;;;;;20.47;52.29;98280.84;5127093;28;20104;-71
2023/08/03 09:12:24;;;;;;;4.10;1.85;;;;;;;20.44;52.54;98285.72;5127070;28;20043;-71
2023/08/03 09:14:52;;;;;;;4.55;2.22;;;;;;;19.87;52.74;98194.38;5127245;28;20066;-71
2023/08/03 09:17:19;;;;;;;4.28;1.95;;;;;;;20.46;52.78;98281.84;5126847;28;20039;-71
2023/08/03 09:19:47;;;;;;;6.63;2.42;;;;;;;20.44;52.50;98280.34;5127018;28;20036;-70
2023/08/03 09:22:14;;;;;;;3.28;2.00;;;;;;;20.38;52.58;98279.19;5125317;28;20356;-71
2023/08/03 09:24:41;;;;;;;3.90;2.15;;;;;;;20.43;52.61;98286.75;5127085;28;20096;-71
2023/08/03 09:27:08;;;;;;;3.45;2.13;;;;;;;20.40;52.21;98276.31;5126949;28;20047;-70
2023/08/03 09:29:34;;;;;;;3.22;1.80;;;;;;;20.40;52.24;98284.41;5126685;28;20058;-71
2023/08/03 09:32:03;;;;;;;3.20;1.83;;;;;;;19.83;52.33;98183.13;5126332;28;20161;-71
2023/08/03 09:34:38;;;;;;;4.93;1.80;;;;;;;20.36;52.01;98283.91;5126187;28;20039;-71
2023/08/03 09:37:07;;;;;;;3.00;1.60;;;;;;;20.19;52.05;98272.31;5126475;28;20059;-71
2023/08/03 09:39:34;;;;;;;4.03;1.98;;;;;;;20.21;52.59;98244.38;5125340;28;20032;-71
2023/08/03 09:42:04;;;;;;;4.15;1.95;;;;;;;20.38;52.93;98265.72;5126153;28;20042;-72
2023/08/03 09:44:31;;;;;;;4.32;1.90;;;;;;;20.40;52.88;98279.00;5126327;28;20074;-72
2023/08/03 09:46:58;;;;;;;4.53;2.00;;;;;;;20.40;52.80;98282.53;5126166;28;20043;-72
2023/08/03 09:49:26;;;;;;;4.03;1.92;;;;;;;20.40;53.19;98281.69;5125957;28;20043;-72
2023/08/03 09:51:53;;;;;;;5.93;2.10;;;;;;;20.37;52.96;98296.34;5125097;28;20084;-72
2023/08/03 09:54:28;;;;;;;2.95;1.85;;;;;;;20.39;53.44;98278.16;5125283;28;20108;-71
2023/08/03 09:56:59;;;;;;;4.40;2.50;;;;;;;20.42;53.33;98279.69;5126267;28;20051;-71
2023/08/03 09:59:31;;;;;;;3.75;2.03;;;;;;;20.39;53.23;98278.16;5126232;28;20302;-71
2023/08/03 10:02:00;;;;;;;3.58;2.03;;;;;;;20.41;53.51;98278.84;5125745;28;20043;-71
2023/08/03 10:04:31;;;;;;;3.63;2.22;;;;;;;20.46;53.06;98289.09;5126229;28;20039;-72
2023/08/03 10:07:03;;;;;;;4.65;1.92;;;;;;;20.36;53.16;98275.81;5124866;28;20047;-72
2023/08/03 10:09:38;;;;;;;5.25;1.98;;;;;;;20.32;52.77;98271.81;5126166;28;20069;-71
2023/08/03 10:12:08;;;;;;;3.42;1.85;;;;;;;20.36;52.54;98272.28;5127989;28;20044;-71
2023/08/03 10:14:40;;;;;;;4.97;3.03;;;;;;;20.39;52.81;98290.78;5129924;28;20054;-71
2023/08/03 10:17:08;;;;;;;3.20;1.98;;;;;;;20.40;52.94;98308.59;5130247;28;20203;-71
2023/08/03 10:19:37;;;;;;;5.60;2.08;;;;;;;20.33;52.18;98311.16;5130182;28;20139;-72
2023/08/03 10:22:06;;;;;;;5.53;2.28;;;;;;;20.33;52.68;98335.38;5130028;28;20043;-71
2023/08/03 10:24:35;;;;;;;5.45;2.42;;;;;;;20.37;52.35;98338.56;5129861;28;20055;-71
2023/08/03 10:27:17;;;;;;;3.45;2.08;;;;;;;20.29;53.12;98322.41;5130294;28;20046;-71
2023/08/03 10:29:53;;;;;;;3.75;2.15;;;;;;;20.36;52.97;98334.19;5130106;28;20059;-71
2023/08/03 10:32:22;;;;;;;3.15;1.80;;;;;;;20.38;52.96;98341.06;5129611;28;20050;-71
2023/08/03 10:34:51;;;;;;;4.03;1.90;;;;;;;20.35;53.14;98340.56;5129832;28;20304;-71
2023/08/03 10:37:18;;;;;;;3.70;1.83;;;;;;;20.14;53.37;98319.56;5129955;28;20093;-71
2023/08/03 10:39:54;;;;;;;2.88;1.98;;;;;;;19.63;54.21;98246.28;5130000;28;20051;-72
2023/08/03 10:42:27;;;;;;;3.13;1.80;;;;;;;20.33;54.84;98369.50;5129773;28;20048;-71
2023/08/03 10:44:55;;;;;;;4.75;2.17;;;;;;;20.18;55.18;98347.78;5129838;28;20118;-71
2023/08/03 10:47:27;;;;;;;3.92;1.88;;;;;;;20.25;55.17;98364.97;5129465;28;20047;-71
2023/08/03 10:49:56;;;;;;;3.83;1.70;;;;;;;19.90;55.02;98306.97;5129662;28;20097;-71
2023/08/03 10:52:26;;;;;;;3.75;2.10;;;;;;;20.32;55.03;98349.00;5129642;28;20047;-71
2023/08/03 10:54:55;;;;;;;2.90;1.80;;;;;;;20.33;55.04;98350.66;5128987;28;20320;-72
2023/08/03 10:57:25;;;;;;;3.88;2.22;;;;;;;20.35;54.96;98333.34;5128510;28;20047;-71
2023/08/03 10:59:53;;;;;;;3.45;2.13;;;;;;;20.35;54.20;98343.25;5129629;28;20069;-70
2023/08/03 11:02:22;;;;;;;4.07;2.80;;;;;;;20.28;54.27;98335.03;5128657;28;20040;-71
2023/08/03 11:04:50;;;;;;;3.78;2.30;;;;;;;20.30;54.23;98329.47;5129301;28;20058;-71
2023/08/03 11:07:20;;;;;;;4.50;1.90;;;;;;;19.60;53.90;98222.44;5129608;28;20043;-71
2023/08/03 11:09:48;;;;;;;7.22;2.53;;;;;;;20.26;54.61;98352.38;5128618;28;20206;-71
2023/08/03 11:12:17;;;;;;;5.05;2.13;;;;;;;20.10;54.34;98310.16;5129061;28;20192;-72
2023/08/03 11:14:45;;;;;;;6.38;2.67;;;;;;;20.25;54.21;98334.53;5127937;28;20086;-71
2023/08/03 11:17:15;;;;;;;2.78;1.80;;;;;;;20.10;53.99;98311.00;5129826;28;20040;-71
2023/08/03 11:19:44;;;;;;;3.40;1.90;;;;;;;20.31;53.94;98339.22;5127865;28;20207;-72
2023/08/03 11:22:12;;;;;;;3.47;1.88;;;;;;;20.30;54.21;98340.25;5129020;28;20110;-71
2023/08/03 11:24:39;;;;;;;3.47;1.90;;;;;;;20.26;54.22;98342.44;5127857;28;20046;-71
2023/08/03 11:27:07;;;;;;;4.53;1.98;;;;;;;20.29;54.31;98338.56;5127718;28;20092;-71
2023/08/03 11:29:36;;;;;;;4.72;1.70;;;;;;;20.29;53.65;98349.31;5128979;28;20043;-71
2023/08/03 11:32:04;;;;;;;3.45;1.92;;;;;;;20.26;53.73;98342.44;5129002;28;20311;-71
2023/08/03 11:34:31;;;;;;;3.33;1.80;;;;;;;20.31;53.85;98344.63;5127812;28;20348;-71
2023/08/03 11:36:57;;;;;;;3.42;2.05;;;;;;;20.30;53.68;98345.63;5128633;28;20039;-71